Time;durP1;ratioP1;P1;durP2;ratioP2;P2;SDS_P1;SDS_P2;PMS_P1;PMS_P2;Temp;Humidity;BMP_temperature;BMP_pressure;BME280_temperature;BME280_humidity;BME280_pressure;Samples;Min_cycle;Max_cycle;Signal;HPM_P1;HPM_P2
2023/01/26 00:01:48;;;;;;;34.20;13.35;;;;;;;0.46;100.00;99385.06;5074016;28;20084;-77
2023/01/26 00:04:14;;;;;;;39.58;13.10;;;;;;;0.39;100.00;99392.72;5081380;28;20027;-75
2023/01/26 00:06:39;;;;;;;31.17;13.10;;;;;;;0.30;100.00;99385.47;5069140;28;20114;-77
2023/01/26 00:09:04;;;;;;;38.85;14.15;;;;;;;0.27;100.00;99376.91;5085660;28;20096;-77
2023/01/26 00:11:30;;;;;;;33.65;13.63;;;;;;;0.37;100.00;99375.19;5091005;28;20036;-76
2023/01/26 00:13:57;;;;;;;33.30;13.57;;;;;;;0.41;100.00;99373.94;5074594;28;20024;-76
2023/01/26 00:16:23;;;;;;;31.33;13.13;;;;;;;0.50;100.00;99369.69;5074274;28;20032;-77
2023/01/26 00:18:48;;;;;;;35.83;13.25;;;;;;;0.44;100.00;99371.03;5077547;28;20056;-76
2023/01/26 00:21:16;;;;;;;38.33;13.95;;;;;;;0.37;100.00;99345.91;5082660;28;20393;-76
2023/01/26 00:23:42;;;;;;;33.65;13.10;;;;;;;0.39;100.00;99354.59;5062603;28;20469;-77
2023/01/26 00:26:10;;;;;;;33.40;13.88;;;;;;;0.38;100.00;99344.91;5090632;28;20031;-76
2023/01/26 00:28:35;;;;;;;36.13;12.68;;;;;;;0.33;100.00;99352.44;5054131;28;20056;-76
2023/01/26 00:31:05;;;;;;;31.05;12.13;;;;;;;0.12;100.00;99326.59;5081704;28;20017;-77
2023/01/26 00:33:31;;;;;;;33.00;12.73;;;;;;;0.24;100.00;99345.19;5069352;28;20063;-77
2023/01/26 00:35:57;;;;;;;39.25;13.15;;;;;;;0.13;100.00;99333.63;5079749;28;20067;-76
2023/01/26 00:38:22;;;;;;;35.08;13.85;;;;;;;0.16;100.00;99348.50;5083954;28;20028;-76
2023/01/26 00:40:48;;;;;;;36.80;13.30;;;;;;;-0.06;100.00;99323.59;5084176;28;20036;-76
2023/01/26 00:43:13;;;;;;;36.67;13.90;;;;;;;-0.06;100.00;99322.75;5090950;28;20028;-77
2023/01/26 00:45:38;;;;;;;42.38;14.50;;;;;;;0.01;100.00;99333.75;5077960;28;20040;-76
2023/01/26 00:48:04;;;;;;;36.35;14.13;;;;;;;0.06;100.00;99334.25;5082794;28;20113;-77
2023/01/26 00:50:30;;;;;;;42.40;14.43;;;;;;;0.01;100.00;99336.41;5062029;28;20032;-76
2023/01/26 00:52:55;;;;;;;36.65;13.98;;;;;;;0.09;100.00;99334.81;5067880;28;20029;-76
2023/01/26 00:55:20;;;;;;;32.20;12.95;;;;;;;0.15;100.00;99339.63;5085690;28;20492;-76
2023/01/26 00:57:47;;;;;;;36.13;13.75;;;;;;;0.21;100.00;99327.69;5071878;28;20481;-77
2023/01/26 01:00:15;;;;;;;32.35;12.80;;;;;;;0.37;100.00;99332.59;5084080;28;20032;-77
2023/01/26 01:02:43;;;;;;;34.28;12.48;;;;;;;0.48;100.00;99339.69;5068997;28;20440;-77
2023/01/26 01:05:09;;;;;;;33.80;12.37;;;;;;;0.36;100.00;99325.56;5079586;28;20459;-76
2023/01/26 01:07:34;;;;;;;28.38;11.77;;;;;;;0.47;100.00;99332.66;5078642;28;20073;-76
2023/01/26 01:10:00;;;;;;;29.23;11.73;;;;;;;0.40;100.00;99317.22;5075824;28;20053;-77
2023/01/26 01:12:25;;;;;;;29.95;11.20;;;;;;;0.32;100.00;99324.97;5097277;28;20041;-77
2023/01/26 01:14:51;;;;;;;32.08;13.02;;;;;;;0.44;100.00;99328.44;5072611;28;20396;-77
2023/01/26 01:17:16;;;;;;;33.53;12.73;;;;;;;0.43;100.00;99324.94;5070188;28;20058;-77
2023/01/26 01:19:42;;;;;;;30.20;11.55;;;;;;;0.29;100.00;99321.69;5086226;28;20036;-76
2023/01/26 01:22:07;;;;;;;31.98;11.80;;;;;;;0.22;100.00;99308.91;5086762;28;20081;-77
2023/01/26 01:24:34;;;;;;;31.38;11.88;;;;;;;0.29;100.00;99317.25;5075572;28;20081;-77
2023/01/26 01:27:00;;;;;;;30.92;11.60;;;;;;;0.29;100.00;99324.38;5078335;28;20026;-76
2023/01/26 01:29:25;;;;;;;27.92;11.32;;;;;;;0.18;100.00;99296.84;5069916;28;20020;-76
2023/01/26 01:31:50;;;;;;;36.60;12.75;;;;;;;0.42;100.00;99311.78;5083135;28;20488;-77
2023/01/26 01:34:15;;;;;;;29.70;11.38;;;;;;;0.36;100.00;99309.59;5075659;28;20077;-77
2023/01/26 01:36:41;;;;;;;27.40;11.15;;;;;;;0.26;100.00;99300.66;5071113;28;20027;-77
2023/01/26 01:39:06;;;;;;;33.35;12.60;;;;;;;0.30;100.00;99323.41;5083823;28;20115;-77
2023/01/26 01:41:31;;;;;;;30.20;11.25;;;;;;;0.27;100.00;99321.00;5079588;28;20108;-76
2023/01/26 01:44:17;;;;;;;34.95;11.60;;;;;;;0.33;100.00;99316.00;5072597;28;20034;-78
2023/01/26 01:46:47;;;;;;;30.58;11.93;;;;;;;0.28;100.00;99312.03;5088235;28;20028;-77
2023/01/26 01:49:22;;;;;;;34.55;12.00;;;;;;;0.21;100.00;99299.25;5068980;28;20389;-77
2023/01/26 01:52:20;;;;;;;27.73;11.20;;;;;;;0.29;100.00;99319.91;5077014;28;20020;-76
2023/01/26 01:54:57;;;;;;;29.95;11.85;;;;;;;0.29;100.00;99313.72;5068525;28;20024;-76
2023/01/26 01:57:43;;;;;;;26.75;10.73;;;;;;;0.30;100.00;99299.47;5078914;28;20020;-77
2023/01/26 02:00:12;;;;;;;29.15;11.98;;;;;;;0.30;100.00;99308.28;5060348;28;20025;-77
2023/01/26 02:02:38;;;;;;;28.98;10.95;;;;;;;0.32;100.00;99310.84;5086676;28;20024;-77
2023/01/26 02:05:14;;;;;;;31.25;11.80;;;;;;;0.19;100.00;99282.56;5090813;28;20070;-77
2023/01/26 02:07:39;;;;;;;27.50;11.18;;;;;;;0.13;100.00;99279.53;5066686;28;20063;-77
2023/01/26 02:10:17;;;;;;;27.98;11.05;;;;;;;0.37;100.00;99306.81;5076346;28;20044;-76
2023/01/26 02:12:44;;;;;;;28.52;11.18;;;;;;;0.20;100.00;99289.56;5084233;28;20111;-77
2023/01/26 02:15:10;;;;;;;26.48;11.18;;;;;;;0.22;100.00;99298.28;5085293;28;20226;-77
2023/01/26 02:17:36;;;;;;;31.17;11.02;;;;;;;0.15;100.00;99285.59;5086016;28;20028;-77
2023/01/26 02:20:18;;;;;;;30.05;11.93;;;;;;;0.25;100.00;99307.81;5078856;28;20101;-77
2023/01/26 02:23:03;;;;;;;26.67;10.88;;;;;;;0.14;100.00;99287.41;5082685;28;20427;-77
2023/01/26 02:25:42;;;;;;;27.95;12.50;;;;;;;0.06;100.00;99287.19;5070098;28;20039;-77
2023/01/26 02:28:07;;;;;;;23.90;9.93;;;;;;;0.09;100.00;99292.25;5068933;28;20118;-76
2023/01/26 02:30:32;;;;;;;25.45;10.45;;;;;;;0.22;100.00;99295.59;5094738;28;20050;-76
2023/01/26 02:32:58;;;;;;;22.90;9.95;;;;;;;0.14;100.00;99279.44;5102716;28;20033;-76
2023/01/26 02:35:23;;;;;;;26.67;11.00;;;;;;;0.17;100.00;99271.19;5081289;28;20496;-76
2023/01/26 02:37:48;;;;;;;27.92;11.10;;;;;;;0.14;100.00;99270.59;5073826;28;20038;-76
2023/01/26 02:40:42;;;;;;;25.40;9.90;;;;;;;0.22;100.00;99281.47;5087227;28;20024;-77
2023/01/26 02:43:08;;;;;;;26.65;10.15;;;;;;;0.14;100.00;99273.28;5083341;28;20036;-76
2023/01/26 02:45:34;;;;;;;27.80;12.05;;;;;;;0.19;100.00;99271.91;5084991;28;20027;-76
2023/01/26 02:48:03;;;;;;;24.90;10.05;;;;;;;0.19;100.00;99260.44;5068900;28;20020;-76
2023/01/26 02:50:30;;;;;;;25.05;9.90;;;;;;;0.21;100.00;99275.31;5075121;28;20019;-76
2023/01/26 02:52:55;;;;;;;25.75;9.85;;;;;;;0.15;100.00;99266.97;5082374;28;20413;-77
2023/01/26 02:55:29;;;;;;;22.67;10.07;;;;;;;0.15;100.00;99256.31;5086862;28;20038;-77
2023/01/26 02:58:01;;;;;;;21.45;9.57;;;;;;;0.18;100.00;99264.91;5066408;28;20024;-77
2023/01/26 03:00:33;;;;;;;25.65;10.23;;;;;;;0.18;100.00;99262.25;5079028;28;20086;-77
2023/01/26 03:03:00;;;;;;;24.30;9.77;;;;;;;0.11;100.00;99247.75;5056384;28;20501;-77
2023/01/26 03:05:27;;;;;;;27.10;10.10;;;;;;;0.28;100.00;99258.81;5066159;28;20028;-77
2023/01/26 03:07:52;;;;;;;25.85;10.95;;;;;;;0.12;100.00;99244.13;5088328;28;20477;-77
2023/01/26 03:10:17;;;;;;;24.73;10.30;;;;;;;0.05;100.00;99220.81;5091855;28;20073;-76
2023/01/26 03:12:44;;;;;;;27.27;9.80;;;;;;;0.13;100.00;99244.94;5059906;28;20028;-77
2023/01/26 03:29:03;;;;;;;23.98;9.55;;;;;;;-0.03;100.00;99237.38;5085588;28;20085;-77
2023/01/26 03:31:29;;;;;;;25.13;10.18;;;;;;;-0.06;100.00;99237.66;5059043;28;20024;-76
2023/01/26 03:33:54;;;;;;;21.83;9.82;;;;;;;-0.12;100.00;99230.19;5087354;28;20104;-77
2023/01/26 03:36:19;;;;;;;25.95;10.50;;;;;;;-0.06;100.00;99241.13;5068902;28;20512;-77
2023/01/26 03:38:44;;;;;;;26.42;10.07;;;;;;;-0.05;100.00;99242.00;5086886;28;20071;-76
2023/01/26 03:57:34;;;;;;;24.98;10.50;;;;;;;-0.15;100.00;99233.09;5085391;28;20115;-77
2023/01/26 03:59:59;;;;;;;29.13;10.43;;;;;;;-0.22;100.00;99219.44;5084564;28;20062;-76
2023/01/26 04:10:36;;;;;;;29.50;10.98;;;;;;;-0.20;100.00;99225.47;5086566;28;20035;-77
2023/01/26 04:21:27;;;;;;;26.63;9.75;;;;;;;-0.19;100.00;99229.81;5081588;28;20125;-77
2023/01/26 04:23:55;;;;;;;24.48;10.07;;;;;;;-0.17;100.00;99240.34;5081771;28;20464;-76
2023/01/26 04:26:20;;;;;;;24.17;10.70;;;;;;;-0.20;100.00;99228.13;5064769;28;20056;-75
2023/01/26 04:28:46;;;;;;;29.23;11.10;;;;;;;-0.19;100.00;99228.97;5085819;28;20067;-75
2023/01/26 04:31:11;;;;;;;28.80;10.90;;;;;;;-0.16;100.00;99228.72;5083837;28;20028;-77
2023/01/26 04:36:04;;;;;;;27.55;10.55;;;;;;;-0.40;100.00;99184.53;5129872;22;20130;-78
2023/01/26 04:38:33;;;;;;;28.90;11.05;;;;;;;-0.60;100.00;99145.44;5087612;28;20106;-77
2023/01/26 04:41:23;;;;;;;23.75;9.63;;;;;;;-0.27;100.00;99193.22;5067019;28;20033;-77
2023/01/26 04:43:52;;;;;;;26.88;10.15;;;;;;;-0.40;100.00;99189.84;5077578;28;20112;-78
2023/01/26 04:46:26;;;;;;;25.20;9.55;;;;;;;-0.22;100.00;99214.13;5053794;28;20028;-76
2023/01/26 04:48:52;;;;;;;26.88;9.68;;;;;;;-0.24;100.00;99200.09;5057667;28;20124;-76
2023/01/26 04:51:19;;;;;;;26.60;10.60;;;;;;;-0.13;100.00;99223.16;5049932;28;20024;-79
2023/01/26 04:53:46;;;;;;;22.83;9.52;;;;;;;-0.25;100.00;99209.88;5063973;28;20025;-77
2023/01/26 04:56:24;;;;;;;23.60;10.00;;;;;;;-0.30;100.00;99205.91;5064777;28;20029;-77
2023/01/26 04:59:21;;;;;;;25.27;9.50;;;;;;;-0.38;100.00;99198.56;5058717;28;20063;-79
2023/01/26 05:01:46;;;;;;;27.30;10.38;;;;;;;-0.34;100.00;99210.66;5049115;28;20029;-80
2023/01/26 05:04:11;;;;;;;22.98;10.05;;;;;;;-0.39;100.00;99196.88;5048901;28;20021;-80
2023/01/26 05:07:16;;;;;;;24.33;9.73;;;;;;;-0.31;100.00;99222.84;5079772;28;20082;-79
2023/01/26 05:10:02;;;;;;;25.98;9.48;;;;;;;-0.40;100.00;99202.31;5068910;28;20049;-79
2023/01/26 05:12:32;;;;;;;23.90;9.32;;;;;;;-0.37;100.00;99205.56;5052091;28;20039;-82
2023/01/26 05:15:29;;;;;;;25.30;8.73;;;;;;;-0.25;100.00;99217.88;5074710;28;20059;-83
2023/01/26 05:17:58;;;;;;;28.00;9.93;;;;;;;-0.55;100.00;99172.50;5078792;28;20033;-81
2023/01/26 05:20:25;;;;;;;21.27;8.32;;;;;;;-0.32;100.00;99216.66;5082681;28;20041;-80
2023/01/26 05:23:28;;;;;;;19.80;8.93;;;;;;;-0.93;100.00;99129.44;5062538;28;20025;-81
2023/01/26 05:25:53;;;;;;;23.77;9.70;;;;;;;-1.33;100.00;99065.41;5075812;28;20031;-79
2023/01/26 05:31:35;;;;;;;23.95;9.70;;;;;;;-0.36;100.00;99233.84;5092070;28;20044;-56
2023/01/26 05:34:00;;;;;;;24.95;9.85;;;;;;;-0.35;100.00;99221.41;5073721;28;20031;-57
2023/01/26 05:36:26;;;;;;;23.27;9.68;;;;;;;-0.35;100.00;99211.59;5090430;28;20020;-56
2023/01/26 05:38:51;;;;;;;23.70;9.90;;;;;;;-0.31;100.00;99221.03;5086572;28;20437;-56
2023/01/26 05:41:16;;;;;;;24.23;9.30;;;;;;;-0.32;100.00;99221.16;5070088;28;20030;-56
2023/01/26 05:43:42;;;;;;;27.70;9.77;;;;;;;-0.30;100.00;99214.72;5061708;28;20036;-56
2023/01/26 05:46:07;;;;;;;25.42;10.38;;;;;;;-0.33;100.00;99220.31;5078638;28;20027;-57
2023/01/26 05:48:33;;;;;;;26.27;10.52;;;;;;;-0.34;100.00;99226.59;5065699;28;20477;-57
2023/01/26 05:50:58;;;;;;;24.45;10.05;;;;;;;-0.30;100.00;99219.22;5074086;28;20017;-57
2023/01/26 05:53:23;;;;;;;24.70;9.55;;;;;;;-0.33;100.00;99224.78;5057610;28;20024;-57
2023/01/26 05:55:49;;;;;;;26.17;10.48;;;;;;;-0.34;100.00;99231.06;5067869;28;20069;-58
2023/01/26 05:58:14;;;;;;;24.92;10.15;;;;;;;-0.34;100.00;99225.72;5066493;28;20057;-57
2023/01/26 06:00:40;;;;;;;22.60;10.20;;;;;;;-0.38;100.00;99221.66;5065447;28;20119;-57
2023/01/26 06:03:05;;;;;;;25.77;10.65;;;;;;;-0.29;100.00;99228.88;5077013;28;20097;-57
2023/01/26 06:05:30;;;;;;;24.38;10.80;;;;;;;-0.40;100.00;99215.59;5063198;28;20020;-57
2023/01/26 06:07:56;;;;;;;27.63;10.05;;;;;;;-0.35;100.00;99222.22;5068345;28;20077;-58
2023/01/26 06:10:21;;;;;;;30.38;10.95;;;;;;;-0.36;100.00;99222.38;5064420;28;20024;-57
2023/01/26 06:12:46;;;;;;;24.65;10.10;;;;;;;-0.47;100.00;99215.28;5065623;28;20032;-57
2023/01/26 06:15:12;;;;;;;22.50;9.27;;;;;;;-0.46;100.00;99216.94;5071706;28;20118;-58
2023/01/26 06:17:37;;;;;;;24.98;10.10;;;;;;;-0.32;100.00;99213.16;5066717;28;20039;-58
2023/01/26 06:20:03;;;;;;;25.08;9.85;;;;;;;-0.41;100.00;99222.75;5074249;28;20054;-58
2023/01/26 06:22:28;;;;;;;22.13;9.68;;;;;;;-0.39;100.00;99218.16;5077166;28;20464;-58
2023/01/26 06:24:54;;;;;;;25.92;9.55;;;;;;;-0.34;100.00;99221.28;5068101;28;20050;-58
2023/01/26 06:27:19;;;;;;;24.00;9.77;;;;;;;-0.43;100.00;99222.00;5060538;28;20029;-58
2023/01/26 06:29:45;;;;;;;25.42;10.07;;;;;;;-0.45;100.00;99219.50;5070582;28;20069;-58
2023/01/26 06:32:11;;;;;;;25.25;10.10;;;;;;;-0.46;100.00;99217.78;5066320;28;20056;-58
2023/01/26 06:34:40;;;;;;;23.23;9.30;;;;;;;-0.47;100.00;99221.41;5057489;28;20106;-58
2023/01/26 06:37:06;;;;;;;25.55;9.48;;;;;;;-0.36;100.00;99223.22;5075218;28;20019;-61
2023/01/26 06:39:32;;;;;;;19.85;8.52;;;;;;;-0.49;100.00;99212.72;5074640;28;20115;-58
2023/01/26 06:41:58;;;;;;;25.83;9.68;;;;;;;-0.56;100.00;99226.63;5066003;28;20020;-58
2023/01/26 06:44:23;;;;;;;21.65;8.90;;;;;;;-0.53;100.00;99229.03;5072870;28;20035;-58
2023/01/26 06:46:49;;;;;;;25.70;8.48;;;;;;;-0.52;100.00;99223.59;5065431;28;20474;-58
2023/01/26 06:49:15;;;;;;;28.63;9.30;;;;;;;-0.54;100.00;99224.69;5064069;28;20020;-58
2023/01/26 06:51:44;;;;;;;20.02;8.60;;;;;;;-0.53;100.00;99232.53;5067845;28;20020;-58
2023/01/26 06:54:11;;;;;;;23.83;9.30;;;;;;;-0.47;100.00;99237.38;5072174;28;20019;-58
2023/01/26 06:56:36;;;;;;;26.08;10.02;;;;;;;-0.40;100.00;99226.25;5067093;28;20059;-58
2023/01/26 06:59:02;;;;;;;16.92;7.85;;;;;;;-0.44;100.00;99225.66;5070339;28;20055;-58
2023/01/26 07:01:32;;;;;;;20.95;9.18;;;;;;;-0.48;100.00;99226.84;5077294;28;20547;-58
2023/01/26 07:03:57;;;;;;;24.38;9.52;;;;;;;-0.50;100.00;99231.44;5062637;28;20482;-58
2023/01/26 07:06:23;;;;;;;19.83;8.00;;;;;;;-0.47;100.00;99225.91;5065619;28;20059;-58
2023/01/26 07:08:48;;;;;;;21.52;8.77;;;;;;;-0.46;100.00;99230.25;5062119;28;20040;-58
2023/01/26 07:11:15;;;;;;;22.13;9.20;;;;;;;-0.54;100.00;99214.06;5070178;28;20008;-58
2023/01/26 07:13:40;;;;;;;19.63;8.23;;;;;;;-0.43;100.00;99229.16;5068159;28;20051;-58
2023/01/26 07:16:09;;;;;;;20.27;8.27;;;;;;;-0.43;100.00;99235.31;5071608;28;20020;-58
2023/01/26 07:18:35;;;;;;;19.50;8.93;;;;;;;-0.41;100.00;99235.19;5062695;28;20027;-58
2023/01/26 07:21:06;;;;;;;23.63;9.55;;;;;;;-0.34;100.00;99245.22;5060977;28;20025;-58
2023/01/26 07:23:32;;;;;;;23.67;9.35;;;;;;;-0.38;100.00;99238.44;5066013;28;20096;-73
2023/01/26 07:25:58;;;;;;;23.23;9.43;;;;;;;-0.38;100.00;99240.25;5060351;28;20098;-73
2023/01/26 07:28:24;;;;;;;23.08;9.50;;;;;;;-0.30;100.00;99240.47;5071915;28;20028;-72
2023/01/26 07:30:50;;;;;;;20.85;8.05;;;;;;;-0.36;100.00;99240.97;5058878;28;20024;-63
2023/01/26 07:33:15;;;;;;;24.42;9.48;;;;;;;-0.45;100.00;99231.91;5069966;28;20030;-62
2023/01/26 07:35:41;;;;;;;18.90;8.63;;;;;;;-0.53;100.00;99247.63;5070299;28;20031;-61
2023/01/26 07:38:06;;;;;;;25.13;9.05;;;;;;;-0.44;100.00;99246.91;5061519;28;20529;-61
2023/01/26 07:40:33;;;;;;;24.23;9.02;;;;;;;-0.37;100.00;99245.44;5083179;28;20063;-61
2023/01/26 07:42:59;;;;;;;32.33;12.65;;;;;;;-0.34;100.00;99245.22;5064106;28;20033;-61
2023/01/26 07:45:25;;;;;;;25.83;10.10;;;;;;;-0.26;100.00;99241.94;5068097;28;20482;-61
2023/01/26 07:47:53;;;;;;;28.88;11.13;;;;;;;-0.23;100.00;99245.19;5075129;28;20028;-60
2023/01/26 07:50:20;;;;;;;27.50;11.85;;;;;;;-0.24;100.00;99251.47;5064137;28;20021;-61
2023/01/26 07:52:46;;;;;;;28.33;12.10;;;;;;;-0.28;100.00;99241.22;5067691;28;20028;-60
2023/01/26 07:55:13;;;;;;;41.95;16.02;;;;;;;-0.21;100.00;99242.38;5072624;28;20028;-60
2023/01/26 07:57:38;;;;;;;34.08;14.35;;;;;;;-0.20;100.00;99243.25;5075026;28;20065;-61
2023/01/26 08:00:04;;;;;;;29.60;11.63;;;;;;;-0.27;100.00;99229.59;5064492;28;20025;-61
2023/01/26 08:02:29;;;;;;;29.63;12.05;;;;;;;-0.09;100.00;99240.56;5067177;28;20020;-60
2023/01/26 08:04:54;;;;;;;29.10;11.40;;;;;;;0.00;100.00;99242.47;5065223;28;20077;-60
2023/01/26 08:07:20;;;;;;;23.80;9.38;;;;;;;0.01;100.00;99238.84;5070306;28;20040;-61
2023/01/26 08:09:45;;;;;;;24.45;10.85;;;;;;;0.05;100.00;99240.25;5055321;28;20049;-60
2023/01/26 08:12:10;;;;;;;25.55;10.52;;;;;;;0.03;100.00;99234.25;5061690;28;20016;-61
2023/01/26 08:14:36;;;;;;;24.48;10.85;;;;;;;0.12;100.00;99249.44;5069181;28;20117;-61
2023/01/26 08:17:01;;;;;;;39.50;14.82;;;;;;;0.13;100.00;99234.31;5077244;28;20020;-61
2023/01/26 08:19:27;;;;;;;34.28;13.82;;;;;;;0.15;100.00;99221.72;5081110;28;20024;-61
2023/01/26 08:21:53;;;;;;;35.55;14.52;;;;;;;0.13;100.00;99224.53;5072826;28;20028;-62
2023/01/26 08:24:18;;;;;;;30.38;12.43;;;;;;;0.22;100.00;99231.75;5077115;28;20114;-63
2023/01/26 08:26:52;;;;;;;39.60;15.45;;;;;;;0.24;100.00;99220.13;5076692;28;20067;-63
2023/01/26 08:29:19;;;;;;;25.02;10.52;;;;;;;0.35;100.00;99230.75;5071785;28;20086;-63
2023/01/26 08:31:44;;;;;;;20.90;8.43;;;;;;;0.31;100.00;99221.31;5075307;28;20017;-63
2023/01/26 08:34:10;;;;;;;19.83;7.45;;;;;;;0.30;100.00;99224.94;5060375;28;20043;-63
2023/01/26 08:36:35;;;;;;;18.23;7.65;;;;;;;0.26;100.00;99228.81;5074912;28;20027;-62
2023/01/26 08:39:01;;;;;;;18.95;7.63;;;;;;;0.31;100.00;99216.81;5081287;28;20078;-63
2023/01/26 08:41:26;;;;;;;17.05;7.57;;;;;;;0.37;100.00;99215.50;5062582;28;20016;-63
2023/01/26 08:43:53;;;;;;;18.77;7.65;;;;;;;0.48;100.00;99218.09;5060866;28;20110;-63
2023/01/26 08:46:18;;;;;;;18.50;7.68;;;;;;;0.44;100.00;99196.19;5074474;28;20032;-64
2023/01/26 08:48:44;;;;;;;15.43;7.18;;;;;;;0.61;100.00;99216.06;5075079;28;20418;-63
2023/01/26 08:51:13;;;;;;;20.05;8.45;;;;;;;0.68;100.00;99212.88;5078615;28;20056;-62
2023/01/26 08:53:38;;;;;;;19.58;8.63;;;;;;;0.77;100.00;99202.28;5071828;28;20027;-63
2023/01/26 08:58:49;;;;;;;20.90;9.50;;;;;;;0.82;100.00;99205.41;5085784;28;20055;-61
2023/01/26 09:01:26;;;;;;;19.23;8.57;;;;;;;0.96;100.00;99211.38;5077918;28;20036;-61
2023/01/26 09:03:52;;;;;;;22.42;9.05;;;;;;;0.90;100.00;99196.75;5065713;28;20031;-61
2023/01/26 09:06:18;;;;;;;17.48;8.05;;;;;;;0.97;100.00;99205.06;5043802;28;20024;-61
2023/01/26 09:08:49;;;;;;;21.38;8.60;;;;;;;0.94;100.00;99206.16;5062684;28;20066;-61
2023/01/26 09:11:15;;;;;;;22.55;9.38;;;;;;;0.95;100.00;99199.03;5065020;28;20021;-61
2023/01/26 09:13:41;;;;;;;20.80;9.20;;;;;;;1.00;100.00;99191.50;5052082;28;20502;-61
2023/01/26 09:16:17;;;;;;;23.92;10.20;;;;;;;0.99;100.00;99201.28;5051791;28;20419;-61
2023/01/26 09:18:51;;;;;;;21.40;8.70;;;;;;;1.01;100.00;99210.00;5066080;28;20028;-60
2023/01/26 09:21:17;;;;;;;17.35;8.15;;;;;;;0.96;100.00;99206.88;5057136;28;20128;-61
2023/01/26 09:23:43;;;;;;;19.75;8.88;;;;;;;1.14;100.00;99204.44;5058933;28;20025;-61
2023/01/26 09:26:09;;;;;;;21.55;9.15;;;;;;;1.11;100.00;99207.38;5056902;28;20082;-61
2023/01/26 09:28:35;;;;;;;22.65;9.35;;;;;;;1.09;100.00;99212.00;5048484;28;20052;-61
2023/01/26 09:31:05;;;;;;;23.67;9.20;;;;;;;1.05;100.00;99219.44;5042495;28;20458;-60
2023/01/26 09:33:32;;;;;;;30.95;11.13;;;;;;;0.92;100.00;99202.81;5048940;28;20119;-60
2023/01/26 09:36:09;;;;;;;24.20;9.80;;;;;;;0.92;100.00;99212.59;5056117;28;20020;-61
2023/01/26 09:38:34;;;;;;;30.73;12.18;;;;;;;0.83;100.00;99211.56;5057013;28;20024;-61
2023/01/26 09:41:33;;;;;;;26.48;9.88;;;;;;;0.38;100.00;99145.31;5118452;22;20038;-83
2023/01/26 09:47:36;;;;;;;24.25;9.65;;;;;;;0.49;100.00;99155.03;5112581;28;20104;-78
2023/01/26 09:50:09;;;;;;;28.20;10.43;;;;;;;0.47;100.00;99163.13;5098927;28;20050;-80
2023/01/26 09:52:41;;;;;;;24.23;10.05;;;;;;;0.90;100.00;99214.56;5081639;28;20016;-74
2023/01/26 09:57:52;;;;;;;24.17;9.32;;;;;;;0.93;100.00;99220.47;5092938;28;20059;-63
2023/01/26 10:00:25;;;;;;;28.80;9.43;;;;;;;1.02;100.00;99214.38;5083271;28;20429;-63
2023/01/26 10:03:13;;;;;;;20.05;9.05;;;;;;;0.97;100.00;99213.03;5072656;28;20024;-63
2023/01/26 10:06:27;;;;;;;22.42;9.13;;;;;;;0.96;100.00;99212.22;5068748;28;20471;-63
2023/01/26 10:09:00;;;;;;;24.52;9.07;;;;;;;0.95;100.00;99210.53;5040970;28;20121;-61
2023/01/26 10:11:42;;;;;;;24.75;9.02;;;;;;;0.95;100.00;99204.38;5078963;28;20020;-61
2023/01/26 10:14:14;;;;;;;22.42;9.68;;;;;;;1.00;100.00;99208.31;5060616;28;20085;-61
2023/01/26 10:16:44;;;;;;;23.58;9.52;;;;;;;0.92;100.00;99200.16;5070379;28;20362;-61
2023/01/26 10:19:20;;;;;;;21.42;9.70;;;;;;;1.05;100.00;99205.25;5065466;28;20073;-61
2023/01/26 10:21:50;;;;;;;24.63;9.52;;;;;;;1.07;100.00;99208.63;5075204;28;20024;-61
2023/01/26 10:24:21;;;;;;;24.02;8.85;;;;;;;0.99;100.00;99205.78;5083638;28;20028;-61
2023/01/26 10:26:46;;;;;;;18.52;7.65;;;;;;;1.03;100.00;99213.38;5067484;28;20487;-61
2023/01/26 10:29:16;;;;;;;24.58;10.68;;;;;;;1.04;100.00;99212.38;5087927;28;20044;-61
2023/01/26 10:31:44;;;;;;;26.10;11.00;;;;;;;1.05;100.00;99207.94;5073950;28;20024;-61
2023/01/26 10:34:14;;;;;;;25.30;10.07;;;;;;;1.04;100.00;99204.41;5082564;28;20085;-61
2023/01/26 10:36:42;;;;;;;21.48;8.95;;;;;;;1.13;100.00;99212.56;5070970;28;20040;-60
2023/01/26 10:39:11;;;;;;;20.35;8.50;;;;;;;1.09;100.00;99209.34;5073603;28;20066;-60
2023/01/26 10:41:38;;;;;;;21.77;8.55;;;;;;;1.08;100.00;99203.16;5070546;28;20072;-60
2023/01/26 10:44:21;;;;;;;21.05;8.27;;;;;;;1.05;100.00;99200.78;5062734;28;20085;-60
2023/01/26 10:47:14;;;;;;;21.88;8.60;;;;;;;1.03;100.00;99209.88;5061953;28;20031;-60
2023/01/26 10:49:41;;;;;;;30.27;10.77;;;;;;;1.05;100.00;99206.09;5059090;28;20094;-60
2023/01/26 10:52:16;;;;;;;19.85;8.38;;;;;;;1.08;100.00;99197.00;5072106;28;20487;-60
2023/01/26 10:54:43;;;;;;;20.85;8.10;;;;;;;0.95;100.00;99188.38;5066720;28;20093;-60
2023/01/26 10:57:28;;;;;;;19.35;8.07;;;;;;;1.05;100.00;99206.09;5058133;28;20038;-60
2023/01/26 10:59:59;;;;;;;18.52;7.80;;;;;;;0.96;100.00;99190.91;5056450;28;20032;-63
2023/01/26 11:02:26;;;;;;;16.63;7.63;;;;;;;0.96;100.00;99196.22;5052284;28;20040;-60
2023/01/26 11:05:05;;;;;;;20.27;7.45;;;;;;;0.93;100.00;99207.16;5061355;28;20071;-60
2023/01/26 11:07:37;;;;;;;18.08;8.05;;;;;;;0.94;100.00;99197.34;5059208;28;20035;-60
2023/01/26 11:10:22;;;;;;;19.48;8.07;;;;;;;0.87;100.00;99186.38;5064073;28;20024;-60
2023/01/26 11:12:48;;;;;;;18.00;7.40;;;;;;;0.92;100.00;99192.16;5051569;28;20507;-60
2023/01/26 11:15:20;;;;;;;18.65;7.63;;;;;;;0.84;100.00;99181.31;5058943;28;20033;-60
2023/01/26 11:18:11;;;;;;;17.75;7.15;;;;;;;0.83;100.00;99179.63;5060096;28;20073;-60
2023/01/26 11:21:02;;;;;;;18.70;8.13;;;;;;;0.80;100.00;99179.88;5063441;28;20122;-60
2023/01/26 11:24:03;;;;;;;15.52;6.57;;;;;;;0.66;100.00;99183.75;5058485;28;20554;-60
2023/01/26 11:26:47;;;;;;;17.80;6.80;;;;;;;0.68;100.00;99176.44;5053514;28;20043;-60
2023/01/26 11:29:49;;;;;;;17.58;6.82;;;;;;;0.69;100.00;99180.81;5058073;28;20021;-60
2023/01/26 11:32:32;;;;;;;20.45;8.38;;;;;;;0.80;100.00;99170.06;5059677;28;20024;-61
2023/01/26 11:35:21;;;;;;;19.55;7.22;;;;;;;0.87;100.00;99171.25;5063301;28;20420;-60
2023/01/26 11:37:48;;;;;;;;;;;;;;;0.81;100.00;99162.91;5057289;28;20039;-60
2023/01/26 11:40:25;;;;;;;15.55;6.72;;;;;;;0.84;100.00;99162.69;5054933;28;19920;-60
2023/01/26 11:43:07;;;;;;;15.70;6.15;;;;;;;0.77;100.00;99161.50;5069655;28;20268;-60
2023/01/26 11:45:45;;;;;;;18.70;7.22;;;;;;;0.71;100.00;99162.03;5068020;28;20016;-60
2023/01/26 11:48:25;;;;;;;15.90;6.00;;;;;;;0.70;100.00;99165.66;5067906;28;20059;-58
2023/01/26 11:51:22;;;;;;;16.98;6.88;;;;;;;0.78;100.00;99153.38;5068471;28;20035;-58
2023/01/26 11:54:28;;;;;;;16.95;5.65;;;;;;;0.74;100.00;99154.63;5056982;28;20041;-60
2023/01/26 11:57:39;;;;;;;12.15;5.32;;;;;;;0.72;100.00;99150.41;5071470;28;20501;-60
2023/01/26 12:00:22;;;;;;;30.05;14.23;;;;;;;0.69;100.00;99145.34;5023884;28;20101;-60
2023/01/26 12:03:23;;;;;;;18.20;7.50;;;;;;;0.63;100.00;99136.91;5065302;28;20031;-60
2023/01/26 12:05:57;;;;;;;12.60;5.35;;;;;;;0.73;100.00;99130.78;5043933;28;20052;-60
2023/01/26 12:08:50;;;;;;;12.95;6.47;;;;;;;0.73;100.00;99136.94;5060714;28;20038;-60
2023/01/26 12:11:28;;;;;;;13.75;5.45;;;;;;;0.68;100.00;99138.31;5044432;28;20032;-60
2023/01/26 12:14:04;;;;;;;14.82;6.32;;;;;;;0.72;100.00;99139.75;5061777;28;20067;-60
2023/01/26 12:17:14;;;;;;;15.18;6.15;;;;;;;0.79;100.00;99139.09;5062758;28;20028;-58
2023/01/26 12:20:17;;;;;;;12.38;5.28;;;;;;;0.72;100.00;99124.63;5063551;28;20058;-58
2023/01/26 12:23:03;;;;;;;14.55;6.05;;;;;;;0.68;100.00;99125.84;5084380;28;20082;-58
2023/01/26 12:25:41;;;;;;;10.70;4.95;;;;;;;0.58;100.00;99122.31;5062846;28;20024;-60
2023/01/26 12:28:23;;;;;;;14.48;4.93;;;;;;;0.51;100.00;99119.31;5064765;28;20032;-60
2023/01/26 12:31:01;;;;;;;12.45;4.88;;;;;;;0.70;100.00;99117.75;5058430;28;20031;-60
2023/01/26 12:33:27;;;;;;;11.32;4.55;;;;;;;0.79;100.00;99115.13;5065780;28;20056;-60
2023/01/26 12:36:15;;;;;;;12.23;5.35;;;;;;;1.02;100.00;99110.47;5061180;28;20064;-60
2023/01/26 12:38:47;;;;;;;10.43;4.50;;;;;;;1.03;100.00;99098.81;5066477;28;20056;-58